KDSV/DSV METAR and TAF weather

Enter ICAO airport designator
Station Type Date Time Source
KDSV METAR 2019/12/13 00:54 UTC NOAA

KDSV 130054Z AUTO 12008KT 10SM CLR 00/M11 A3041 RMK AO2 SLP316 T00001111


Station Type Date Time Source
KDSV Decoded METAR 2019/12/13 00:54 UTC NOAA

DANSVILLE MUNICIPAL AIRPORT, NY, United States (KDSV) 42-34N 077-43W 198M
Dec 12, 2019 - 07:54 PM EST / 2019.12.13 0054 UTC
Wind: from the ESE (120 degrees) at 9 MPH (8 KT):0
Visibility: 10 mile(s):0
Sky conditions: clear
Temperature: 32.0 F (0.0 C)
Windchill: 24 F (-4 C):1
Dew Point: 12.0 F (-11.1 C)
Relative Humidity: 42%
Pressure (altimeter): 30.41 in. Hg (1029 hPa)
ob: KDSV 130054Z AUTO 12008KT 10SM CLR 00/M11 A3041 RMK AO2 SLP316 T00001111
cycle: 1

Station Type Date Time Source
KDSV TAF UTC NOAA

Error!

Example: see airport list